sensor_id;sensor_type;location;lat;lon;timestamp;P1;durP1;ratioP1;P2;durP2;ratioP2
15363;SDS011;7781;49.690;6.472;2023-04-24T00:01:54;0.90;;;0.80;;
15363;SDS011;7781;49.690;6.472;2023-04-24T00:04:23;0.67;;;0.67;;
15363;SDS011;7781;49.690;6.472;2023-04-24T00:06:53;0.70;;;0.70;;
15363;SDS011;7781;49.690;6.472;2023-04-24T00:09:23;3.20;;;0.70;;
15363;SDS011;7781;49.690;6.472;2023-04-24T00:11:55;2.00;;;0.70;;
15363;SDS011;7781;49.690;6.472;2023-04-24T00:14:25;0.70;;;0.60;;
15363;SDS011;7781;49.690;6.472;2023-04-24T00:16:57;0.70;;;0.70;;
15363;SDS011;7781;49.690;6.472;2023-04-24T00:19:28;3.60;;;0.87;;
15363;SDS011;7781;49.690;6.472;2023-04-24T00:21:58;1.10;;;0.70;;
15363;SDS011;7781;49.690;6.472;2023-04-24T00:24:27;0.97;;;0.97;;
15363;SDS011;7781;49.690;6.472;2023-04-24T00:26:56;1.17;;;0.80;;
15363;SDS011;7781;49.690;6.472;2023-04-24T00:29:30;3.17;;;1.10;;
15363;SDS011;7781;49.690;6.472;2023-04-24T00:31:59;0.90;;;0.90;;
15363;SDS011;7781;49.690;6.472;2023-04-24T00:34:28;1.80;;;1.13;;
15363;SDS011;7781;49.690;6.472;2023-04-24T00:36:57;5.83;;;1.30;;
15363;SDS011;7781;49.690;6.472;2023-04-24T00:39:25;1.40;;;1.20;;
15363;SDS011;7781;49.690;6.472;2023-04-24T00:41:54;1.37;;;1.27;;
15363;SDS011;7781;49.690;6.472;2023-04-24T00:44:24;2.10;;;1.33;;
15363;SDS011;7781;49.690;6.472;2023-04-24T00:46:55;2.30;;;1.20;;
15363;SDS011;7781;49.690;6.472;2023-04-24T00:49:25;2.63;;;1.30;;
15363;SDS011;7781;49.690;6.472;2023-04-24T00:51:54;1.70;;;1.60;;
15363;SDS011;7781;49.690;6.472;2023-04-24T00:54:25;2.50;;;1.50;;
15363;SDS011;7781;49.690;6.472;2023-04-24T00:56:54;1.33;;;1.23;;
15363;SDS011;7781;49.690;6.472;2023-04-24T00:59:24;2.00;;;1.80;;
15363;SDS011;7781;49.690;6.472;2023-04-24T01:01:52;2.90;;;2.03;;
15363;SDS011;7781;49.690;6.472;2023-04-24T01:04:23;1.70;;;1.60;;
15363;SDS011;7781;49.690;6.472;2023-04-24T01:06:52;4.20;;;1.70;;
15363;SDS011;7781;49.690;6.472;2023-04-24T01:09:24;3.40;;;2.60;;
15363;SDS011;7781;49.690;6.472;2023-04-24T01:11:53;5.40;;;2.47;;
15363;SDS011;7781;49.690;6.472;2023-04-24T01:14:24;4.10;;;2.27;;
15363;SDS011;7781;49.690;6.472;2023-04-24T01:16:52;2.67;;;2.47;;
15363;SDS011;7781;49.690;6.472;2023-04-24T01:19:27;2.77;;;2.47;;
15363;SDS011;7781;49.690;6.472;2023-04-24T01:21:57;4.83;;;2.57;;
15363;SDS011;7781;49.690;6.472;2023-04-24T01:24:29;5.07;;;2.63;;
15363;SDS011;7781;49.690;6.472;2023-04-24T01:26:58;4.00;;;2.47;;
15363;SDS011;7781;49.690;6.472;2023-04-24T01:29:27;5.03;;;2.33;;
15363;SDS011;7781;49.690;6.472;2023-04-24T01:31:56;2.33;;;2.23;;
15363;SDS011;7781;49.690;6.472;2023-04-24T01:34:26;4.00;;;2.30;;
15363;SDS011;7781;49.690;6.472;2023-04-24T01:36:55;4.10;;;2.37;;
15363;SDS011;7781;49.690;6.472;2023-04-24T01:39:27;2.60;;;2.40;;
15363;SDS011;7781;49.690;6.472;2023-04-24T01:42:00;3.20;;;2.90;;
15363;SDS011;7781;49.690;6.472;2023-04-24T01:44:29;2.87;;;2.57;;
15363;SDS011;7781;49.690;6.472;2023-04-24T01:46:59;6.47;;;2.70;;
15363;SDS011;7781;49.690;6.472;2023-04-24T01:49:33;2.93;;;2.60;;
15363;SDS011;7781;49.690;6.472;2023-04-24T01:52:04;2.93;;;2.27;;
15363;SDS011;7781;49.690;6.472;2023-04-24T01:54:34;3.30;;;3.00;;
15363;SDS011;7781;49.690;6.472;2023-04-24T01:57:03;7.93;;;2.70;;
15363;SDS011;7781;49.690;6.472;2023-04-24T01:59:33;4.43;;;3.17;;
15363;SDS011;7781;49.690;6.472;2023-04-24T02:02:03;5.20;;;3.17;;
15363;SDS011;7781;49.690;6.472;2023-04-24T02:04:34;6.87;;;3.27;;
15363;SDS011;7781;49.690;6.472;2023-04-24T02:07:02;4.20;;;3.70;;
15363;SDS011;7781;49.690;6.472;2023-04-24T02:09:32;4.10;;;3.70;;
15363;SDS011;7781;49.690;6.472;2023-04-24T02:12:02;7.30;;;3.77;;
15363;SDS011;7781;49.690;6.472;2023-04-24T02:14:31;3.93;;;3.40;;
15363;SDS011;7781;49.690;6.472;2023-04-24T02:17:02;13.30;;;3.80;;
15363;SDS011;7781;49.690;6.472;2023-04-24T02:19:31;5.20;;;3.00;;
15363;SDS011;7781;49.690;6.472;2023-04-24T02:21:59;5.03;;;3.97;;
15363;SDS011;7781;49.690;6.472;2023-04-24T02:24:28;5.13;;;3.40;;
15363;SDS011;7781;49.690;6.472;2023-04-24T02:26:56;8.80;;;3.77;;
15363;SDS011;7781;49.690;6.472;2023-04-24T02:29:27;5.70;;;3.50;;
15363;SDS011;7781;49.690;6.472;2023-04-24T02:31:56;8.17;;;4.00;;
15363;SDS011;7781;49.690;6.472;2023-04-24T02:34:24;9.30;;;4.07;;
15363;SDS011;7781;49.690;6.472;2023-04-24T02:36:55;7.03;;;4.10;;
15363;SDS011;7781;49.690;6.472;2023-04-24T02:39:26;4.67;;;4.13;;
15363;SDS011;7781;49.690;6.472;2023-04-24T02:41:54;5.60;;;4.10;;
15363;SDS011;7781;49.690;6.472;2023-04-24T02:44:23;9.50;;;4.43;;
15363;SDS011;7781;49.690;6.472;2023-04-24T02:46:53;8.10;;;4.70;;
15363;SDS011;7781;49.690;6.472;2023-04-24T02:49:24;5.30;;;4.27;;
15363;SDS011;7781;49.690;6.472;2023-04-24T02:51:54;5.20;;;3.73;;
15363;SDS011;7781;49.690;6.472;2023-04-24T02:54:25;8.63;;;4.47;;
15363;SDS011;7781;49.690;6.472;2023-04-24T02:56:53;9.93;;;5.17;;
15363;SDS011;7781;49.690;6.472;2023-04-24T02:59:23;5.50;;;4.53;;
15363;SDS011;7781;49.690;6.472;2023-04-24T03:01:55;7.03;;;3.60;;
15363;SDS011;7781;49.690;6.472;2023-04-24T03:04:24;5.53;;;3.73;;
15363;SDS011;7781;49.690;6.472;2023-04-24T03:06:54;5.23;;;4.00;;
15363;SDS011;7781;49.690;6.472;2023-04-24T03:09:23;5.33;;;4.47;;
15363;SDS011;7781;49.690;6.472;2023-04-24T03:11:52;6.17;;;4.13;;
15363;SDS011;7781;49.690;6.472;2023-04-24T03:14:24;5.97;;;3.93;;
15363;SDS011;7781;49.690;6.472;2023-04-24T03:16:52;6.23;;;4.70;;
15363;SDS011;7781;49.690;6.472;2023-04-24T03:19:23;9.70;;;5.10;;
15363;SDS011;7781;49.690;6.472;2023-04-24T03:21:59;7.00;;;5.30;;
15363;SDS011;7781;49.690;6.472;2023-04-24T03:24:31;7.67;;;5.30;;
15363;SDS011;7781;49.690;6.472;2023-04-24T03:26:59;6.00;;;5.20;;
15363;SDS011;7781;49.690;6.472;2023-04-24T03:29:44;6.80;;;3.67;;
15363;SDS011;7781;49.690;6.472;2023-04-24T03:32:16;6.73;;;4.60;;
15363;SDS011;7781;49.690;6.472;2023-04-24T03:34:46;15.30;;;6.60;;
15363;SDS011;7781;49.690;6.472;2023-04-24T03:37:17;6.60;;;5.40;;
15363;SDS011;7781;49.690;6.472;2023-04-24T03:39:56;12.00;;;6.27;;
15363;SDS011;7781;49.690;6.472;2023-04-24T03:42:25;7.77;;;5.40;;
15363;SDS011;7781;49.690;6.472;2023-04-24T03:44:55;8.27;;;5.17;;
15363;SDS011;7781;49.690;6.472;2023-04-24T03:47:31;10.73;;;5.30;;
15363;SDS011;7781;49.690;6.472;2023-04-24T03:50:01;8.27;;;6.50;;
15363;SDS011;7781;49.690;6.472;2023-04-24T03:52:31;9.33;;;4.60;;
15363;SDS011;7781;49.690;6.472;2023-04-24T03:54:59;10.10;;;5.70;;
15363;SDS011;7781;49.690;6.472;2023-04-24T03:57:32;7.70;;;5.87;;
15363;SDS011;7781;49.690;6.472;2023-04-24T04:00:09;9.23;;;4.97;;
15363;SDS011;7781;49.690;6.472;2023-04-24T04:02:44;8.40;;;6.00;;
15363;SDS011;7781;49.690;6.472;2023-04-24T04:05:13;6.17;;;4.70;;
15363;SDS011;7781;49.690;6.472;2023-04-24T04:07:43;8.00;;;6.03;;
15363;SDS011;7781;49.690;6.472;2023-04-24T04:10:12;6.97;;;5.33;;
15363;SDS011;7781;49.690;6.472;2023-04-24T04:12:41;7.60;;;5.80;;
15363;SDS011;7781;49.690;6.472;2023-04-24T04:15:10;6.23;;;5.03;;
15363;SDS011;7781;49.690;6.472;2023-04-24T04:17:40;8.87;;;5.70;;
15363;SDS011;7781;49.690;6.472;2023-04-24T04:20:12;7.63;;;4.50;;
15363;SDS011;7781;49.690;6.472;2023-04-24T04:22:41;10.70;;;5.30;;
15363;SDS011;7781;49.690;6.472;2023-04-24T04:25:15;6.27;;;5.33;;
15363;SDS011;7781;49.690;6.472;2023-04-24T04:27:45;4.10;;;3.10;;
15363;SDS011;7781;49.690;6.472;2023-04-24T04:30:15;3.63;;;3.13;;
15363;SDS011;7781;49.690;6.472;2023-04-24T04:32:50;9.13;;;4.70;;
15363;SDS011;7781;49.690;6.472;2023-04-24T04:35:22;7.23;;;4.30;;
15363;SDS011;7781;49.690;6.472;2023-04-24T04:37:52;5.60;;;3.70;;
15363;SDS011;7781;49.690;6.472;2023-04-24T04:40:31;5.00;;;4.20;;
15363;SDS011;7781;49.690;6.472;2023-04-24T04:43:03;5.17;;;4.20;;
15363;SDS011;7781;49.690;6.472;2023-04-24T04:45:40;5.70;;;4.10;;
15363;SDS011;7781;49.690;6.472;2023-04-24T04:48:30;5.43;;;3.47;;
15363;SDS011;7781;49.690;6.472;2023-04-24T04:51:03;6.00;;;3.90;;
15363;SDS011;7781;49.690;6.472;2023-04-24T04:53:33;5.03;;;4.30;;
15363;SDS011;7781;49.690;6.472;2023-04-24T04:56:01;4.60;;;4.10;;
15363;SDS011;7781;49.690;6.472;2023-04-24T04:58:41;4.53;;;3.90;;
15363;SDS011;7781;49.690;6.472;2023-04-24T05:01:13;5.70;;;4.23;;
15363;SDS011;7781;49.690;6.472;2023-04-24T05:03:45;4.83;;;3.80;;
15363;SDS011;7781;49.690;6.472;2023-04-24T05:06:18;4.03;;;3.50;;
15363;SDS011;7781;49.690;6.472;2023-04-24T05:08:50;9.00;;;4.20;;
15363;SDS011;7781;49.690;6.472;2023-04-24T05:11:34;5.10;;;4.20;;
15363;SDS011;7781;49.690;6.472;2023-04-24T05:14:02;4.73;;;4.13;;
15363;SDS011;7781;49.690;6.472;2023-04-24T05:16:34;3.90;;;3.40;;
15363;SDS011;7781;49.690;6.472;2023-04-24T05:19:05;4.50;;;3.47;;
15363;SDS011;7781;49.690;6.472;2023-04-24T05:21:40;4.93;;;3.50;;
15363;SDS011;7781;49.690;6.472;2023-04-24T05:24:10;7.70;;;4.03;;
15363;SDS011;7781;49.690;6.472;2023-04-24T05:26:43;4.10;;;3.13;;
15363;SDS011;7781;49.690;6.472;2023-04-24T05:29:14;2.30;;;2.10;;
15363;SDS011;7781;49.690;6.472;2023-04-24T05:31:47;9.10;;;3.47;;
15363;SDS011;7781;49.690;6.472;2023-04-24T05:34:15;3.27;;;3.07;;
15363;SDS011;7781;49.690;6.472;2023-04-24T05:36:48;5.30;;;3.50;;
15363;SDS011;7781;49.690;6.472;2023-04-24T05:39:20;4.10;;;3.33;;
15363;SDS011;7781;49.690;6.472;2023-04-24T05:41:52;5.30;;;3.67;;
15363;SDS011;7781;49.690;6.472;2023-04-24T05:44:21;3.83;;;3.43;;
15363;SDS011;7781;49.690;6.472;2023-04-24T05:46:51;7.30;;;3.83;;
15363;SDS011;7781;49.690;6.472;2023-04-24T05:49:22;6.27;;;3.60;;
15363;SDS011;7781;49.690;6.472;2023-04-24T05:51:52;4.77;;;3.50;;
15363;SDS011;7781;49.690;6.472;2023-04-24T05:54:24;4.63;;;3.40;;
15363;SDS011;7781;49.690;6.472;2023-04-24T05:56:52;4.00;;;3.37;;
15363;SDS011;7781;49.690;6.472;2023-04-24T05:59:37;6.70;;;3.70;;
15363;SDS011;7781;49.690;6.472;2023-04-24T06:02:09;4.50;;;3.63;;
15363;SDS011;7781;49.690;6.472;2023-04-24T06:04:38;8.53;;;3.53;;
15363;SDS011;7781;49.690;6.472;2023-04-24T06:07:08;6.50;;;4.13;;
15363;SDS011;7781;49.690;6.472;2023-04-24T06:09:42;7.40;;;3.90;;
15363;SDS011;7781;49.690;6.472;2023-04-24T06:12:12;4.87;;;4.00;;
15363;SDS011;7781;49.690;6.472;2023-04-24T06:14:53;5.20;;;3.40;;
15363;SDS011;7781;49.690;6.472;2023-04-24T06:17:42;5.03;;;3.60;;
15363;SDS011;7781;49.690;6.472;2023-04-24T06:20:13;5.00;;;3.87;;
15363;SDS011;7781;49.690;6.472;2023-04-24T06:22:45;4.40;;;4.00;;
15363;SDS011;7781;49.690;6.472;2023-04-24T06:25:14;7.17;;;3.70;;
15363;SDS011;7781;49.690;6.472;2023-04-24T06:27:45;9.23;;;4.60;;
15363;SDS011;7781;49.690;6.472;2023-04-24T06:30:14;3.67;;;3.07;;
15363;SDS011;7781;49.690;6.472;2023-04-24T06:32:43;3.57;;;3.07;;
15363;SDS011;7781;49.690;6.472;2023-04-24T06:35:14;3.83;;;2.87;;
15363;SDS011;7781;49.690;6.472;2023-04-24T06:37:43;4.00;;;3.60;;
15363;SDS011;7781;49.690;6.472;2023-04-24T06:40:13;6.70;;;4.00;;
15363;SDS011;7781;49.690;6.472;2023-04-24T06:42:42;4.07;;;3.50;;
15363;SDS011;7781;49.690;6.472;2023-04-24T06:45:11;5.97;;;3.90;;
15363;SDS011;7781;49.690;6.472;2023-04-24T06:47:40;6.80;;;3.53;;
15363;SDS011;7781;49.690;6.472;2023-04-24T06:50:08;4.73;;;3.63;;
15363;SDS011;7781;49.690;6.472;2023-04-24T06:52:37;4.10;;;2.83;;
15363;SDS011;7781;49.690;6.472;2023-04-24T06:55:08;5.10;;;3.90;;
15363;SDS011;7781;49.690;6.472;2023-04-24T06:57:39;5.13;;;3.30;;
15363;SDS011;7781;49.690;6.472;2023-04-24T07:00:08;3.97;;;3.03;;
15363;SDS011;7781;49.690;6.472;2023-04-24T07:02:37;4.97;;;3.57;;
15363;SDS011;7781;49.690;6.472;2023-04-24T07:05:06;4.73;;;3.70;;
15363;SDS011;7781;49.690;6.472;2023-04-24T07:07:35;4.83;;;3.63;;
15363;SDS011;7781;49.690;6.472;2023-04-24T07:10:07;6.90;;;4.50;;
15363;SDS011;7781;49.690;6.472;2023-04-24T07:12:36;7.07;;;3.90;;
15363;SDS011;7781;49.690;6.472;2023-04-24T07:15:08;7.60;;;3.40;;
15363;SDS011;7781;49.690;6.472;2023-04-24T07:17:39;8.60;;;4.77;;
15363;SDS011;7781;49.690;6.472;2023-04-24T07:20:11;6.00;;;4.57;;
15363;SDS011;7781;49.690;6.472;2023-04-24T07:22:41;8.60;;;4.07;;
15363;SDS011;7781;49.690;6.472;2023-04-24T07:25:10;7.87;;;4.50;;
15363;SDS011;7781;49.690;6.472;2023-04-24T07:27:40;9.13;;;4.93;;
15363;SDS011;7781;49.690;6.472;2023-04-24T07:30:09;7.30;;;4.07;;
15363;SDS011;7781;49.690;6.472;2023-04-24T07:32:38;8.30;;;4.90;;
15363;SDS011;7781;49.690;6.472;2023-04-24T07:35:07;5.73;;;4.13;;
15363;SDS011;7781;49.690;6.472;2023-04-24T07:37:36;3.90;;;3.03;;
15363;SDS011;7781;49.690;6.472;2023-04-24T07:40:07;6.10;;;4.40;;
15363;SDS011;7781;49.690;6.472;2023-04-24T07:42:36;6.70;;;4.53;;
15363;SDS011;7781;49.690;6.472;2023-04-24T07:45:08;10.03;;;5.87;;
15363;SDS011;7781;49.690;6.472;2023-04-24T07:47:36;5.37;;;3.70;;
15363;SDS011;7781;49.690;6.472;2023-04-24T07:50:06;4.17;;;3.40;;
15363;SDS011;7781;49.690;6.472;2023-04-24T07:52:35;5.83;;;4.50;;
15363;SDS011;7781;49.690;6.472;2023-04-24T07:55:04;9.50;;;4.87;;
15363;SDS011;7781;49.690;6.472;2023-04-24T07:57:35;6.63;;;4.30;;
15363;SDS011;7781;49.690;6.472;2023-04-24T08:00:03;6.37;;;4.80;;
15363;SDS011;7781;49.690;6.472;2023-04-24T08:02:39;5.47;;;4.30;;
15363;SDS011;7781;49.690;6.472;2023-04-24T08:05:08;10.97;;;4.60;;
15363;SDS011;7781;49.690;6.472;2023-04-24T08:07:37;4.10;;;2.90;;
15363;SDS011;7781;49.690;6.472;2023-04-24T08:10:06;7.27;;;4.00;;
15363;SDS011;7781;49.690;6.472;2023-04-24T08:12:36;4.97;;;4.10;;
15363;SDS011;7781;49.690;6.472;2023-04-24T08:15:08;4.20;;;3.20;;
15363;SDS011;7781;49.690;6.472;2023-04-24T08:17:37;5.20;;;4.10;;
15363;SDS011;7781;49.690;6.472;2023-04-24T08:20:08;6.10;;;4.20;;
15363;SDS011;7781;49.690;6.472;2023-04-24T08:22:40;13.90;;;4.40;;
15363;SDS011;7781;49.690;6.472;2023-04-24T08:25:09;6.10;;;4.30;;
15363;SDS011;7781;49.690;6.472;2023-04-24T08:27:38;6.07;;;3.80;;
15363;SDS011;7781;49.690;6.472;2023-04-24T08:30:08;6.90;;;4.20;;
15363;SDS011;7781;49.690;6.472;2023-04-24T08:32:37;6.07;;;4.20;;
15363;SDS011;7781;49.690;6.472;2023-04-24T08:35:06;5.50;;;4.80;;
15363;SDS011;7781;49.690;6.472;2023-04-24T08:37:36;5.73;;;4.47;;
15363;SDS011;7781;49.690;6.472;2023-04-24T08:40:06;11.10;;;5.13;;
15363;SDS011;7781;49.690;6.472;2023-04-24T08:42:39;5.20;;;3.37;;
15363;SDS011;7781;49.690;6.472;2023-04-24T08:45:12;8.53;;;5.33;;
15363;SDS011;7781;49.690;6.472;2023-04-24T08:47:41;9.50;;;5.00;;
15363;SDS011;7781;49.690;6.472;2023-04-24T08:50:10;6.17;;;4.27;;
15363;SDS011;7781;49.690;6.472;2023-04-24T08:52:39;5.50;;;4.47;;
15363;SDS011;7781;49.690;6.472;2023-04-24T08:55:12;8.10;;;4.57;;
15363;SDS011;7781;49.690;6.472;2023-04-24T08:57:41;7.80;;;4.90;;
15363;SDS011;7781;49.690;6.472;2023-04-24T09:00:15;7.10;;;4.33;;
15363;SDS011;7781;49.690;6.472;2023-04-24T09:02:45;7.67;;;5.53;;
15363;SDS011;7781;49.690;6.472;2023-04-24T09:05:16;6.00;;;4.53;;
15363;SDS011;7781;49.690;6.472;2023-04-24T09:07:49;4.60;;;3.23;;
15363;SDS011;7781;49.690;6.472;2023-04-24T09:10:21;6.80;;;4.37;;
15363;SDS011;7781;49.690;6.472;2023-04-24T09:12:52;8.77;;;4.90;;
15363;SDS011;7781;49.690;6.472;2023-04-24T09:15:22;6.50;;;4.90;;
15363;SDS011;7781;49.690;6.472;2023-04-24T09:17:52;6.03;;;4.47;;
15363;SDS011;7781;49.690;6.472;2023-04-24T09:20:22;8.30;;;4.60;;
15363;SDS011;7781;49.690;6.472;2023-04-24T09:22:53;10.20;;;5.50;;
15363;SDS011;7781;49.690;6.472;2023-04-24T09:25:23;6.83;;;4.60;;
15363;SDS011;7781;49.690;6.472;2023-04-24T09:28:00;6.33;;;4.77;;
15363;SDS011;7781;49.690;6.472;2023-04-24T09:30:32;6.33;;;5.07;;
15363;SDS011;7781;49.690;6.472;2023-04-24T09:33:10;8.67;;;5.50;;
15363;SDS011;7781;49.690;6.472;2023-04-24T09:35:41;6.13;;;5.00;;
15363;SDS011;7781;49.690;6.472;2023-04-24T09:38:19;10.73;;;5.13;;
15363;SDS011;7781;49.690;6.472;2023-04-24T09:40:59;7.13;;;4.87;;
15363;SDS011;7781;49.690;6.472;2023-04-24T09:43:29;5.43;;;4.33;;
15363;SDS011;7781;49.690;6.472;2023-04-24T09:46:05;4.77;;;3.77;;
15363;SDS011;7781;49.690;6.472;2023-04-24T09:48:36;5.30;;;4.50;;
15363;SDS011;7781;49.690;6.472;2023-04-24T09:51:06;6.23;;;3.97;;
15363;SDS011;7781;49.690;6.472;2023-04-24T09:53:37;6.83;;;4.20;;
15363;SDS011;7781;49.690;6.472;2023-04-24T09:56:10;7.13;;;4.10;;
15363;SDS011;7781;49.690;6.472;2023-04-24T09:58:40;6.40;;;4.33;;
15363;SDS011;7781;49.690;6.472;2023-04-24T10:01:10;5.27;;;3.77;;
15363;SDS011;7781;49.690;6.472;2023-04-24T10:03:38;4.13;;;3.30;;
15363;SDS011;7781;49.690;6.472;2023-04-24T10:06:13;9.57;;;3.80;;
15363;SDS011;7781;49.690;6.472;2023-04-24T10:08:42;4.33;;;3.33;;
15363;SDS011;7781;49.690;6.472;2023-04-24T10:11:13;6.90;;;4.10;;
15363;SDS011;7781;49.690;6.472;2023-04-24T10:13:41;5.17;;;3.43;;
15363;SDS011;7781;49.690;6.472;2023-04-24T10:16:13;5.47;;;3.23;;
15363;SDS011;7781;49.690;6.472;2023-04-24T10:18:42;7.90;;;3.80;;
15363;SDS011;7781;49.690;6.472;2023-04-24T10:21:12;8.07;;;3.50;;
15363;SDS011;7781;49.690;6.472;2023-04-24T10:23:41;8.40;;;3.60;;
15363;SDS011;7781;49.690;6.472;2023-04-24T10:26:13;5.77;;;3.47;;
15363;SDS011;7781;49.690;6.472;2023-04-24T10:28:44;13.23;;;3.80;;
15363;SDS011;7781;49.690;6.472;2023-04-24T10:31:19;4.77;;;3.23;;
15363;SDS011;7781;49.690;6.472;2023-04-24T10:33:48;5.30;;;3.67;;
15363;SDS011;7781;49.690;6.472;2023-04-24T10:36:19;3.70;;;3.10;;
15363;SDS011;7781;49.690;6.472;2023-04-24T10:38:54;6.97;;;3.47;;
15363;SDS011;7781;49.690;6.472;2023-04-24T10:41:23;5.40;;;3.50;;
15363;SDS011;7781;49.690;6.472;2023-04-24T10:44:06;5.23;;;3.10;;
15363;SDS011;7781;49.690;6.472;2023-04-24T10:46:38;3.70;;;2.83;;
15363;SDS011;7781;49.690;6.472;2023-04-24T10:49:07;4.33;;;2.73;;
15363;SDS011;7781;49.690;6.472;2023-04-24T10:54:28;4.33;;;3.20;;
15363;SDS011;7781;49.690;6.472;2023-04-24T11:00:21;9.40;;;2.77;;
15363;SDS011;7781;49.690;6.472;2023-04-24T11:02:55;3.87;;;2.90;;
15363;SDS011;7781;49.690;6.472;2023-04-24T11:08:21;6.37;;;2.90;;
15363;SDS011;7781;49.690;6.472;2023-04-24T11:11:11;4.37;;;3.07;;
15363;SDS011;7781;49.690;6.472;2023-04-24T11:16:30;4.17;;;2.73;;
15363;SDS011;7781;49.690;6.472;2023-04-24T11:19:04;3.97;;;2.60;;
15363;SDS011;7781;49.690;6.472;2023-04-24T11:21:40;5.40;;;3.03;;
15363;SDS011;7781;49.690;6.472;2023-04-24T11:24:30;4.23;;;3.00;;
15363;SDS011;7781;49.690;6.472;2023-04-24T11:27:04;3.80;;;2.87;;
15363;SDS011;7781;49.690;6.472;2023-04-24T11:29:41;6.40;;;3.60;;
15363;SDS011;7781;49.690;6.472;2023-04-24T11:32:19;4.03;;;3.07;;
15363;SDS011;7781;49.690;6.472;2023-04-24T11:34:55;6.87;;;3.77;;
15363;SDS011;7781;49.690;6.472;2023-04-24T11:37:26;7.43;;;3.83;;
15363;SDS011;7781;49.690;6.472;2023-04-24T11:40:06;6.50;;;4.00;;
15363;SDS011;7781;49.690;6.472;2023-04-24T11:42:37;8.93;;;4.00;;
15363;SDS011;7781;49.690;6.472;2023-04-24T11:45:10;6.90;;;4.40;;
15363;SDS011;7781;49.690;6.472;2023-04-24T11:47:40;4.20;;;3.57;;
15363;SDS011;7781;49.690;6.472;2023-04-24T11:50:12;5.60;;;3.30;;
15363;SDS011;7781;49.690;6.472;2023-04-24T11:52:43;4.10;;;3.60;;
15363;SDS011;7781;49.690;6.472;2023-04-24T11:55:22;8.90;;;3.70;;
15363;SDS011;7781;49.690;6.472;2023-04-24T11:57:56;5.03;;;4.00;;
15363;SDS011;7781;49.690;6.472;2023-04-24T12:00:31;6.73;;;4.50;;
15363;SDS011;7781;49.690;6.472;2023-04-24T12:03:03;5.70;;;3.67;;
15363;SDS011;7781;49.690;6.472;2023-04-24T12:05:35;6.40;;;4.00;;
15363;SDS011;7781;49.690;6.472;2023-04-24T12:08:05;6.00;;;3.63;;
15363;SDS011;7781;49.690;6.472;2023-04-24T12:10:34;5.30;;;4.00;;
15363;SDS011;7781;49.690;6.472;2023-04-24T12:13:04;9.97;;;4.27;;
15363;SDS011;7781;49.690;6.472;2023-04-24T12:15:32;5.47;;;3.70;;
15363;SDS011;7781;49.690;6.472;2023-04-24T12:18:00;7.50;;;4.33;;
15363;SDS011;7781;49.690;6.472;2023-04-24T12:20:30;6.87;;;4.60;;
15363;SDS011;7781;49.690;6.472;2023-04-24T12:23:01;6.57;;;4.20;;
15363;SDS011;7781;49.690;6.472;2023-04-24T12:25:30;5.40;;;3.30;;
15363;SDS011;7781;49.690;6.472;2023-04-24T12:28:10;4.77;;;3.97;;
15363;SDS011;7781;49.690;6.472;2023-04-24T12:30:40;7.13;;;4.20;;
15363;SDS011;7781;49.690;6.472;2023-04-24T12:33:11;4.93;;;3.87;;
15363;SDS011;7781;49.690;6.472;2023-04-24T12:35:41;5.90;;;3.50;;
15363;SDS011;7781;49.690;6.472;2023-04-24T12:38:12;5.60;;;3.73;;
15363;SDS011;7781;49.690;6.472;2023-04-24T12:40:41;11.33;;;3.33;;
15363;SDS011;7781;49.690;6.472;2023-04-24T12:43:14;4.60;;;3.40;;
15363;SDS011;7781;49.690;6.472;2023-04-24T12:45:43;4.53;;;3.50;;
15363;SDS011;7781;49.690;6.472;2023-04-24T12:48:12;5.63;;;3.60;;
15363;SDS011;7781;49.690;6.472;2023-04-24T12:50:42;5.80;;;3.30;;
15363;SDS011;7781;49.690;6.472;2023-04-24T12:53:14;5.13;;;3.40;;
15363;SDS011;7781;49.690;6.472;2023-04-24T12:55:43;3.40;;;3.10;;
15363;SDS011;7781;49.690;6.472;2023-04-24T12:58:19;5.17;;;3.30;;
15363;SDS011;7781;49.690;6.472;2023-04-24T13:00:47;8.20;;;4.00;;
15363;SDS011;7781;49.690;6.472;2023-04-24T13:03:17;6.90;;;3.27;;
15363;SDS011;7781;49.690;6.472;2023-04-24T13:05:46;5.43;;;3.30;;
15363;SDS011;7781;49.690;6.472;2023-04-24T13:08:16;4.37;;;2.90;;
15363;SDS011;7781;49.690;6.472;2023-04-24T13:10:45;6.27;;;3.80;;
15363;SDS011;7781;49.690;6.472;2023-04-24T13:13:14;3.60;;;3.10;;
15363;SDS011;7781;49.690;6.472;2023-04-24T13:15:42;6.07;;;3.37;;
15363;SDS011;7781;49.690;6.472;2023-04-24T13:18:11;4.37;;;3.23;;
15363;SDS011;7781;49.690;6.472;2023-04-24T13:20:40;3.90;;;3.10;;
15363;SDS011;7781;49.690;6.472;2023-04-24T13:23:09;6.73;;;3.67;;
15363;SDS011;7781;49.690;6.472;2023-04-24T13:25:39;4.77;;;3.40;;
15363;SDS011;7781;49.690;6.472;2023-04-24T13:28:09;5.07;;;3.57;;
15363;SDS011;7781;49.690;6.472;2023-04-24T13:30:39;5.53;;;3.67;;
15363;SDS011;7781;49.690;6.472;2023-04-24T13:33:09;3.67;;;3.33;;
15363;SDS011;7781;49.690;6.472;2023-04-24T13:35:38;4.00;;;3.60;;
15363;SDS011;7781;49.690;6.472;2023-04-24T13:38:07;4.57;;;3.43;;
15363;SDS011;7781;49.690;6.472;2023-04-24T13:40:36;6.70;;;3.87;;
15363;SDS011;7781;49.690;6.472;2023-04-24T13:43:05;6.50;;;3.73;;
15363;SDS011;7781;49.690;6.472;2023-04-24T13:45:34;5.20;;;4.27;;
15363;SDS011;7781;49.690;6.472;2023-04-24T13:48:03;5.07;;;4.30;;
15363;SDS011;7781;49.690;6.472;2023-04-24T13:50:33;5.30;;;4.50;;
15363;SDS011;7781;49.690;6.472;2023-04-24T13:53:04;8.10;;;4.47;;
15363;SDS011;7781;49.690;6.472;2023-04-24T13:55:37;6.10;;;4.70;;
15363;SDS011;7781;49.690;6.472;2023-04-24T13:58:08;14.10;;;4.03;;
15363;SDS011;7781;49.690;6.472;2023-04-24T14:00:37;5.57;;;4.20;;
15363;SDS011;7781;49.690;6.472;2023-04-24T14:03:05;5.00;;;3.70;;
15363;SDS011;7781;49.690;6.472;2023-04-24T14:05:35;6.33;;;4.23;;
15363;SDS011;7781;49.690;6.472;2023-04-24T14:08:05;8.70;;;4.07;;
15363;SDS011;7781;49.690;6.472;2023-04-24T14:10:35;4.43;;;3.80;;
15363;SDS011;7781;49.690;6.472;2023-04-24T14:13:03;5.67;;;4.57;;
15363;SDS011;7781;49.690;6.472;2023-04-24T14:15:34;7.70;;;4.50;;
15363;SDS011;7781;49.690;6.472;2023-04-24T14:18:03;5.60;;;4.40;;
15363;SDS011;7781;49.690;6.472;2023-04-24T14:20:32;6.20;;;4.40;;
15363;SDS011;7781;49.690;6.472;2023-04-24T14:23:00;5.23;;;4.17;;
15363;SDS011;7781;49.690;6.472;2023-04-24T14:25:30;6.63;;;4.30;;
15363;SDS011;7781;49.690;6.472;2023-04-24T14:27:58;7.50;;;4.60;;
15363;SDS011;7781;49.690;6.472;2023-04-24T14:30:29;11.60;;;4.50;;
15363;SDS011;7781;49.690;6.472;2023-04-24T14:33:02;9.57;;;4.30;;
15363;SDS011;7781;49.690;6.472;2023-04-24T14:35:31;6.10;;;3.73;;
15363;SDS011;7781;49.690;6.472;2023-04-24T14:38:00;6.67;;;3.90;;
15363;SDS011;7781;49.690;6.472;2023-04-24T14:40:29;8.40;;;3.60;;
15363;SDS011;7781;49.690;6.472;2023-04-24T14:43:02;11.67;;;8.40;;
15363;SDS011;7781;49.690;6.472;2023-04-24T14:45:30;5.13;;;3.70;;
15363;SDS011;7781;49.690;6.472;2023-04-24T14:47:59;6.13;;;3.17;;
15363;SDS011;7781;49.690;6.472;2023-04-24T14:50:29;7.70;;;3.40;;
15363;SDS011;7781;49.690;6.472;2023-04-24T14:52:58;3.50;;;2.90;;
15363;SDS011;7781;49.690;6.472;2023-04-24T14:55:28;3.90;;;3.10;;
15363;SDS011;7781;49.690;6.472;2023-04-24T14:58:00;5.67;;;2.80;;
15363;SDS011;7781;49.690;6.472;2023-04-24T15:00:30;4.30;;;3.37;;
15363;SDS011;7781;49.690;6.472;2023-04-24T15:03:00;4.40;;;3.27;;
15363;SDS011;7781;49.690;6.472;2023-04-24T15:05:33;3.40;;;2.70;;
15363;SDS011;7781;49.690;6.472;2023-04-24T15:08:03;3.70;;;3.00;;
15363;SDS011;7781;49.690;6.472;2023-04-24T15:10:32;20.77;;;2.43;;
15363;SDS011;7781;49.690;6.472;2023-04-24T15:13:01;10.60;;;2.60;;
15363;SDS011;7781;49.690;6.472;2023-04-24T15:15:30;5.13;;;2.60;;
15363;SDS011;7781;49.690;6.472;2023-04-24T15:17:59;3.90;;;2.57;;
15363;SDS011;7781;49.690;6.472;2023-04-24T15:20:27;2.90;;;2.57;;
15363;SDS011;7781;49.690;6.472;2023-04-24T15:22:58;2.47;;;2.27;;
15363;SDS011;7781;49.690;6.472;2023-04-24T15:25:28;3.90;;;2.50;;
15363;SDS011;7781;49.690;6.472;2023-04-24T15:27:58;3.33;;;2.90;;
15363;SDS011;7781;49.690;6.472;2023-04-24T15:30:27;6.17;;;3.10;;
15363;SDS011;7781;49.690;6.472;2023-04-24T15:32:59;5.80;;;3.00;;
15363;SDS011;7781;49.690;6.472;2023-04-24T15:35:28;6.13;;;3.00;;